sensor_id;sensor_type;location;lat;lon;timestamp;P1;durP1;ratioP1;P2;durP2;ratioP2
13032;SDS011;6583;42.632;23.298;2023-02-12T00:02:25;8.67;;;5.27;;
13032;SDS011;6583;42.632;23.298;2023-02-12T00:04:52;7.53;;;4.03;;
13032;SDS011;6583;42.632;23.298;2023-02-12T00:07:19;6.33;;;4.07;;
13032;SDS011;6583;42.632;23.298;2023-02-12T00:09:47;6.63;;;3.90;;
13032;SDS011;6583;42.632;23.298;2023-02-12T00:12:14;6.27;;;4.00;;
13032;SDS011;6583;42.632;23.298;2023-02-12T00:14:40;4.20;;;3.03;;
13032;SDS011;6583;42.632;23.298;2023-02-12T00:17:07;5.67;;;3.47;;
13032;SDS011;6583;42.632;23.298;2023-02-12T00:19:34;5.50;;;3.60;;
13032;SDS011;6583;42.632;23.298;2023-02-12T00:22:00;5.43;;;3.80;;
13032;SDS011;6583;42.632;23.298;2023-02-12T00:24:27;6.90;;;3.70;;
13032;SDS011;6583;42.632;23.298;2023-02-12T00:26:55;7.80;;;3.97;;
13032;SDS011;6583;42.632;23.298;2023-02-12T00:29:22;6.10;;;3.17;;
13032;SDS011;6583;42.632;23.298;2023-02-12T00:31:48;6.00;;;3.90;;
13032;SDS011;6583;42.632;23.298;2023-02-12T00:34:15;6.03;;;4.00;;
13032;SDS011;6583;42.632;23.298;2023-02-12T00:36:41;6.13;;;3.90;;
13032;SDS011;6583;42.632;23.298;2023-02-12T00:39:08;5.47;;;3.70;;
13032;SDS011;6583;42.632;23.298;2023-02-12T00:41:36;5.03;;;3.60;;
13032;SDS011;6583;42.632;23.298;2023-02-12T00:44:04;6.27;;;3.83;;
13032;SDS011;6583;42.632;23.298;2023-02-12T00:46:30;4.63;;;3.00;;
13032;SDS011;6583;42.632;23.298;2023-02-12T00:48:57;4.53;;;3.13;;
13032;SDS011;6583;42.632;23.298;2023-02-12T00:51:24;4.97;;;3.23;;
13032;SDS011;6583;42.632;23.298;2023-02-12T00:53:50;4.37;;;2.50;;
13032;SDS011;6583;42.632;23.298;2023-02-12T00:56:17;4.53;;;3.17;;
13032;SDS011;6583;42.632;23.298;2023-02-12T00:58:44;3.80;;;2.60;;
13032;SDS011;6583;42.632;23.298;2023-02-12T01:01:12;3.33;;;2.40;;
13032;SDS011;6583;42.632;23.298;2023-02-12T01:03:38;4.70;;;2.63;;
13032;SDS011;6583;42.632;23.298;2023-02-12T01:06:05;3.97;;;2.87;;
13032;SDS011;6583;42.632;23.298;2023-02-12T01:08:32;4.40;;;2.90;;
13032;SDS011;6583;42.632;23.298;2023-02-12T01:11:00;5.50;;;3.43;;
13032;SDS011;6583;42.632;23.298;2023-02-12T01:13:28;5.23;;;3.47;;
13032;SDS011;6583;42.632;23.298;2023-02-12T01:16:05;5.57;;;3.50;;
13032;SDS011;6583;42.632;23.298;2023-02-12T01:18:36;6.13;;;2.73;;
13032;SDS011;6583;42.632;23.298;2023-02-12T01:21:07;5.00;;;3.50;;
13032;SDS011;6583;42.632;23.298;2023-02-12T01:23:34;4.80;;;3.30;;
13032;SDS011;6583;42.632;23.298;2023-02-12T01:26:01;6.20;;;3.00;;
13032;SDS011;6583;42.632;23.298;2023-02-12T01:28:28;5.60;;;3.60;;
13032;SDS011;6583;42.632;23.298;2023-02-12T01:30:55;7.47;;;4.70;;
13032;SDS011;6583;42.632;23.298;2023-02-12T01:33:22;7.23;;;4.57;;
13032;SDS011;6583;42.632;23.298;2023-02-12T01:35:50;8.87;;;5.37;;
13032;SDS011;6583;42.632;23.298;2023-02-12T01:38:16;6.97;;;4.47;;
13032;SDS011;6583;42.632;23.298;2023-02-12T01:40:43;6.97;;;4.77;;
13032;SDS011;6583;42.632;23.298;2023-02-12T01:43:10;7.47;;;4.47;;
13032;SDS011;6583;42.632;23.298;2023-02-12T01:45:45;7.00;;;5.00;;
13032;SDS011;6583;42.632;23.298;2023-02-12T01:48:16;8.17;;;4.60;;
13032;SDS011;6583;42.632;23.298;2023-02-12T01:50:45;5.77;;;4.50;;
13032;SDS011;6583;42.632;23.298;2023-02-12T01:53:15;6.97;;;4.70;;
13032;SDS011;6583;42.632;23.298;2023-02-12T01:55:46;6.77;;;4.20;;
13032;SDS011;6583;42.632;23.298;2023-02-12T01:58:14;6.67;;;4.57;;
13032;SDS011;6583;42.632;23.298;2023-02-12T02:00:41;6.33;;;3.87;;
13032;SDS011;6583;42.632;23.298;2023-02-12T02:03:08;4.83;;;3.70;;
13032;SDS011;6583;42.632;23.298;2023-02-12T02:05:37;6.57;;;4.60;;
13032;SDS011;6583;42.632;23.298;2023-02-12T02:08:09;7.17;;;4.50;;
13032;SDS011;6583;42.632;23.298;2023-02-12T02:10:37;7.33;;;4.90;;
13032;SDS011;6583;42.632;23.298;2023-02-12T02:13:04;9.13;;;4.97;;
13032;SDS011;6583;42.632;23.298;2023-02-12T02:15:50;6.87;;;4.77;;
13032;SDS011;6583;42.632;23.298;2023-02-12T02:18:22;6.80;;;4.20;;
13032;SDS011;6583;42.632;23.298;2023-02-12T02:21:13;6.47;;;4.47;;
13032;SDS011;6583;42.632;23.298;2023-02-12T02:29:42;8.47;;;5.37;;
13032;SDS011;6583;42.632;23.298;2023-02-12T02:32:25;7.93;;;5.27;;
13032;SDS011;6583;42.632;23.298;2023-02-12T02:34:56;8.13;;;5.70;;
13032;SDS011;6583;42.632;23.298;2023-02-12T02:37:30;9.10;;;5.83;;
13032;SDS011;6583;42.632;23.298;2023-02-12T02:40:02;9.83;;;6.10;;
13032;SDS011;6583;42.632;23.298;2023-02-12T02:42:38;10.77;;;6.43;;
13032;SDS011;6583;42.632;23.298;2023-02-12T02:45:10;9.17;;;6.03;;
13032;SDS011;6583;42.632;23.298;2023-02-12T02:47:42;9.80;;;6.13;;
13032;SDS011;6583;42.632;23.298;2023-02-12T02:50:12;8.60;;;5.77;;
13032;SDS011;6583;42.632;23.298;2023-02-12T02:52:42;10.87;;;5.50;;
13032;SDS011;6583;42.632;23.298;2023-02-12T02:55:13;9.43;;;6.03;;
13032;SDS011;6583;42.632;23.298;2023-02-12T02:57:45;12.60;;;6.23;;
13032;SDS011;6583;42.632;23.298;2023-02-12T03:00:16;9.17;;;6.20;;
13032;SDS011;6583;42.632;23.298;2023-02-12T03:02:49;11.40;;;6.37;;
13032;SDS011;6583;42.632;23.298;2023-02-12T03:05:22;10.97;;;6.37;;
13032;SDS011;6583;42.632;23.298;2023-02-12T03:07:53;9.30;;;6.17;;
13032;SDS011;6583;42.632;23.298;2023-02-12T03:10:25;10.03;;;6.77;;
13032;SDS011;6583;42.632;23.298;2023-02-12T03:12:56;10.30;;;5.70;;
13032;SDS011;6583;42.632;23.298;2023-02-12T03:15:29;10.37;;;5.60;;
13032;SDS011;6583;42.632;23.298;2023-02-12T03:18:00;10.60;;;6.13;;
13032;SDS011;6583;42.632;23.298;2023-02-12T03:20:32;7.77;;;4.77;;
13032;SDS011;6583;42.632;23.298;2023-02-12T03:23:06;6.80;;;4.30;;
13032;SDS011;6583;42.632;23.298;2023-02-12T03:25:37;11.40;;;6.60;;
13032;SDS011;6583;42.632;23.298;2023-02-12T03:28:09;10.07;;;6.23;;
13032;SDS011;6583;42.632;23.298;2023-02-12T03:30:41;8.90;;;5.63;;
13032;SDS011;6583;42.632;23.298;2023-02-12T03:33:17;11.23;;;6.47;;
13032;SDS011;6583;42.632;23.298;2023-02-12T03:35:51;12.70;;;5.67;;
13032;SDS011;6583;42.632;23.298;2023-02-12T03:38:27;11.97;;;6.80;;
13032;SDS011;6583;42.632;23.298;2023-02-12T03:41:03;11.83;;;6.73;;
13032;SDS011;6583;42.632;23.298;2023-02-12T03:43:36;12.17;;;6.17;;
13032;SDS011;6583;42.632;23.298;2023-02-12T03:46:12;10.60;;;6.57;;
13032;SDS011;6583;42.632;23.298;2023-02-12T03:48:45;12.27;;;7.13;;
13032;SDS011;6583;42.632;23.298;2023-02-12T03:51:19;10.37;;;6.27;;
13032;SDS011;6583;42.632;23.298;2023-02-12T03:53:51;10.90;;;6.20;;
13032;SDS011;6583;42.632;23.298;2023-02-12T03:56:19;12.17;;;6.80;;
13032;SDS011;6583;42.632;23.298;2023-02-12T03:58:50;11.80;;;6.60;;
13032;SDS011;6583;42.632;23.298;2023-02-12T04:01:17;8.40;;;5.87;;
13032;SDS011;6583;42.632;23.298;2023-02-12T04:03:45;10.13;;;6.03;;
13032;SDS011;6583;42.632;23.298;2023-02-12T04:06:19;11.70;;;6.50;;
13032;SDS011;6583;42.632;23.298;2023-02-12T04:08:47;12.73;;;6.00;;
13032;SDS011;6583;42.632;23.298;2023-02-12T04:11:18;10.40;;;6.10;;
13032;SDS011;6583;42.632;23.298;2023-02-12T04:13:54;11.83;;;7.10;;
13032;SDS011;6583;42.632;23.298;2023-02-12T04:16:34;11.23;;;6.57;;
13032;SDS011;6583;42.632;23.298;2023-02-12T04:19:11;11.97;;;7.07;;
13032;SDS011;6583;42.632;23.298;2023-02-12T04:21:42;10.97;;;6.80;;
13032;SDS011;6583;42.632;23.298;2023-02-12T04:24:17;11.60;;;6.77;;
13032;SDS011;6583;42.632;23.298;2023-02-12T04:26:53;11.77;;;6.70;;
13032;SDS011;6583;42.632;23.298;2023-02-12T04:29:26;11.70;;;6.73;;
13032;SDS011;6583;42.632;23.298;2023-02-12T04:32:00;11.73;;;6.70;;
13032;SDS011;6583;42.632;23.298;2023-02-12T04:34:33;10.10;;;5.83;;
13032;SDS011;6583;42.632;23.298;2023-02-12T04:37:08;12.20;;;7.00;;
13032;SDS011;6583;42.632;23.298;2023-02-12T04:39:40;11.27;;;7.13;;
13032;SDS011;6583;42.632;23.298;2023-02-12T04:42:07;13.13;;;8.07;;
13032;SDS011;6583;42.632;23.298;2023-02-12T04:44:36;10.97;;;6.80;;
13032;SDS011;6583;42.632;23.298;2023-02-12T04:47:05;13.17;;;7.67;;
13032;SDS011;6583;42.632;23.298;2023-02-12T04:49:33;13.33;;;7.60;;
13032;SDS011;6583;42.632;23.298;2023-02-12T04:52:00;12.60;;;7.13;;
13032;SDS011;6583;42.632;23.298;2023-02-12T04:54:27;11.77;;;7.77;;
13032;SDS011;6583;42.632;23.298;2023-02-12T04:56:53;11.60;;;6.97;;
13032;SDS011;6583;42.632;23.298;2023-02-12T04:59:20;10.80;;;4.57;;
13032;SDS011;6583;42.632;23.298;2023-02-12T05:01:46;12.13;;;6.03;;
13032;SDS011;6583;42.632;23.298;2023-02-12T05:04:14;13.13;;;7.20;;
13032;SDS011;6583;42.632;23.298;2023-02-12T05:06:43;11.70;;;7.20;;
13032;SDS011;6583;42.632;23.298;2023-02-12T05:09:12;12.13;;;7.43;;
13032;SDS011;6583;42.632;23.298;2023-02-12T05:11:40;12.90;;;7.57;;
13032;SDS011;6583;42.632;23.298;2023-02-12T05:14:07;13.47;;;7.13;;
13032;SDS011;6583;42.632;23.298;2023-02-12T05:16:34;12.47;;;7.00;;
13032;SDS011;6583;42.632;23.298;2023-02-12T05:19:00;13.83;;;8.50;;
13032;SDS011;6583;42.632;23.298;2023-02-12T05:21:27;9.67;;;6.03;;
13032;SDS011;6583;42.632;23.298;2023-02-12T05:23:55;12.20;;;7.13;;
13032;SDS011;6583;42.632;23.298;2023-02-12T05:26:22;12.53;;;7.87;;
13032;SDS011;6583;42.632;23.298;2023-02-12T05:28:48;15.93;;;9.30;;
13032;SDS011;6583;42.632;23.298;2023-02-12T05:31:16;14.10;;;8.27;;
13032;SDS011;6583;42.632;23.298;2023-02-12T05:33:44;14.43;;;8.53;;
13032;SDS011;6583;42.632;23.298;2023-02-12T05:36:13;14.53;;;8.47;;
13032;SDS011;6583;42.632;23.298;2023-02-12T05:38:41;14.10;;;8.73;;
13032;SDS011;6583;42.632;23.298;2023-02-12T05:41:10;13.83;;;8.80;;
13032;SDS011;6583;42.632;23.298;2023-02-12T05:43:38;12.93;;;8.40;;
13032;SDS011;6583;42.632;23.298;2023-02-12T05:46:05;13.40;;;8.80;;
13032;SDS011;6583;42.632;23.298;2023-02-12T05:48:32;11.70;;;7.57;;
13032;SDS011;6583;42.632;23.298;2023-02-12T05:51:01;11.60;;;7.13;;
13032;SDS011;6583;42.632;23.298;2023-02-12T05:53:29;9.60;;;5.40;;
13032;SDS011;6583;42.632;23.298;2023-02-12T05:56:04;9.63;;;6.10;;
13032;SDS011;6583;42.632;23.298;2023-02-12T05:58:40;9.50;;;5.57;;
13032;SDS011;6583;42.632;23.298;2023-02-12T06:01:08;12.43;;;7.03;;
13032;SDS011;6583;42.632;23.298;2023-02-12T06:03:36;10.33;;;6.43;;
13032;SDS011;6583;42.632;23.298;2023-02-12T06:06:03;12.37;;;7.40;;
13032;SDS011;6583;42.632;23.298;2023-02-12T06:08:30;15.53;;;7.47;;
13032;SDS011;6583;42.632;23.298;2023-02-12T06:10:58;13.00;;;6.67;;
13032;SDS011;6583;42.632;23.298;2023-02-12T06:13:27;11.87;;;7.23;;
13032;SDS011;6583;42.632;23.298;2023-02-12T06:15:54;12.03;;;7.37;;
13032;SDS011;6583;42.632;23.298;2023-02-12T06:18:21;13.47;;;7.67;;
13032;SDS011;6583;42.632;23.298;2023-02-12T06:20:48;11.97;;;7.13;;
13032;SDS011;6583;42.632;23.298;2023-02-12T06:23:14;12.47;;;7.27;;
13032;SDS011;6583;42.632;23.298;2023-02-12T06:25:41;12.37;;;7.23;;
13032;SDS011;6583;42.632;23.298;2023-02-12T06:28:08;9.97;;;5.60;;
13032;SDS011;6583;42.632;23.298;2023-02-12T06:30:36;14.77;;;8.20;;
13032;SDS011;6583;42.632;23.298;2023-02-12T06:33:02;13.53;;;7.90;;
13032;SDS011;6583;42.632;23.298;2023-02-12T06:35:29;12.33;;;7.03;;
13032;SDS011;6583;42.632;23.298;2023-02-12T06:37:56;13.53;;;8.10;;
13032;SDS011;6583;42.632;23.298;2023-02-12T06:40:22;14.13;;;8.33;;
13032;SDS011;6583;42.632;23.298;2023-02-12T06:42:49;12.07;;;7.73;;
13032;SDS011;6583;42.632;23.298;2023-02-12T06:45:16;15.57;;;8.67;;
13032;SDS011;6583;42.632;23.298;2023-02-12T06:47:44;11.20;;;7.43;;
13032;SDS011;6583;42.632;23.298;2023-02-12T06:50:10;11.77;;;7.40;;
13032;SDS011;6583;42.632;23.298;2023-02-12T06:52:37;13.03;;;8.60;;
13032;SDS011;6583;42.632;23.298;2023-02-12T06:55:04;15.10;;;8.87;;
13032;SDS011;6583;42.632;23.298;2023-02-12T06:57:31;13.40;;;8.63;;
13032;SDS011;6583;42.632;23.298;2023-02-12T06:59:57;17.00;;;9.10;;
13032;SDS011;6583;42.632;23.298;2023-02-12T07:02:24;14.40;;;9.17;;
13032;SDS011;6583;42.632;23.298;2023-02-12T07:04:52;16.60;;;9.40;;
13032;SDS011;6583;42.632;23.298;2023-02-12T07:07:19;14.47;;;9.73;;
13032;SDS011;6583;42.632;23.298;2023-02-12T07:09:45;16.47;;;9.40;;
13032;SDS011;6583;42.632;23.298;2023-02-12T07:12:12;13.17;;;7.20;;
13032;SDS011;6583;42.632;23.298;2023-02-12T07:14:39;14.33;;;9.17;;
13032;SDS011;6583;42.632;23.298;2023-02-12T07:17:05;14.80;;;9.77;;
13032;SDS011;6583;42.632;23.298;2023-02-12T07:19:33;17.53;;;10.23;;
13032;SDS011;6583;42.632;23.298;2023-02-12T07:22:02;14.50;;;9.40;;
13032;SDS011;6583;42.632;23.298;2023-02-12T07:24:29;18.20;;;11.20;;
13032;SDS011;6583;42.632;23.298;2023-02-12T07:26:56;17.43;;;10.67;;
13032;SDS011;6583;42.632;23.298;2023-02-12T07:29:22;18.30;;;10.23;;
13032;SDS011;6583;42.632;23.298;2023-02-12T07:31:49;17.23;;;10.40;;
13032;SDS011;6583;42.632;23.298;2023-02-12T07:34:16;16.27;;;10.10;;
13032;SDS011;6583;42.632;23.298;2023-02-12T07:36:42;16.07;;;10.43;;
13032;SDS011;6583;42.632;23.298;2023-02-12T07:39:11;16.50;;;10.33;;
13032;SDS011;6583;42.632;23.298;2023-02-12T07:41:38;15.73;;;10.40;;
13032;SDS011;6583;42.632;23.298;2023-02-12T07:44:05;14.80;;;10.00;;
13032;SDS011;6583;42.632;23.298;2023-02-12T07:46:35;19.33;;;11.27;;
13032;SDS011;6583;42.632;23.298;2023-02-12T07:49:03;16.77;;;11.27;;
13032;SDS011;6583;42.632;23.298;2023-02-12T07:51:31;19.93;;;12.73;;
13032;SDS011;6583;42.632;23.298;2023-02-12T07:53:58;17.97;;;12.33;;
13032;SDS011;6583;42.632;23.298;2023-02-12T07:56:27;20.03;;;12.37;;
13032;SDS011;6583;42.632;23.298;2023-02-12T07:58:57;21.17;;;13.33;;
13032;SDS011;6583;42.632;23.298;2023-02-12T08:01:25;19.00;;;12.47;;
13032;SDS011;6583;42.632;23.298;2023-02-12T08:03:53;19.70;;;11.87;;
13032;SDS011;6583;42.632;23.298;2023-02-12T08:06:23;19.63;;;13.07;;
13032;SDS011;6583;42.632;23.298;2023-02-12T08:08:51;20.80;;;12.77;;
13032;SDS011;6583;42.632;23.298;2023-02-12T08:11:20;22.43;;;13.23;;
13032;SDS011;6583;42.632;23.298;2023-02-12T08:13:49;20.33;;;12.70;;
13032;SDS011;6583;42.632;23.298;2023-02-12T08:16:16;24.07;;;15.17;;
13032;SDS011;6583;42.632;23.298;2023-02-12T08:18:44;22.03;;;14.43;;
13032;SDS011;6583;42.632;23.298;2023-02-12T08:21:11;22.33;;;14.17;;
13032;SDS011;6583;42.632;23.298;2023-02-12T08:23:40;21.73;;;14.63;;
13032;SDS011;6583;42.632;23.298;2023-02-12T08:26:08;22.67;;;14.97;;
13032;SDS011;6583;42.632;23.298;2023-02-12T08:28:36;28.73;;;16.33;;
13032;SDS011;6583;42.632;23.298;2023-02-12T08:31:07;26.93;;;16.40;;
13032;SDS011;6583;42.632;23.298;2023-02-12T08:33:35;30.33;;;17.10;;
13032;SDS011;6583;42.632;23.298;2023-02-12T08:36:02;25.43;;;16.60;;
13032;SDS011;6583;42.632;23.298;2023-02-12T08:38:31;29.07;;;16.97;;
13032;SDS011;6583;42.632;23.298;2023-02-12T08:41:01;33.10;;;18.70;;
13032;SDS011;6583;42.632;23.298;2023-02-12T08:43:28;28.03;;;17.33;;
13032;SDS011;6583;42.632;23.298;2023-02-12T08:45:59;33.13;;;19.33;;
13032;SDS011;6583;42.632;23.298;2023-02-12T08:48:28;27.70;;;17.63;;
13032;SDS011;6583;42.632;23.298;2023-02-12T08:50:55;28.53;;;17.33;;
13032;SDS011;6583;42.632;23.298;2023-02-12T08:53:22;28.50;;;17.33;;
13032;SDS011;6583;42.632;23.298;2023-02-12T08:55:48;29.43;;;18.47;;
13032;SDS011;6583;42.632;23.298;2023-02-12T08:58:15;26.00;;;16.97;;
13032;SDS011;6583;42.632;23.298;2023-02-12T09:00:42;22.37;;;14.13;;
13032;SDS011;6583;42.632;23.298;2023-02-12T09:03:08;24.13;;;14.87;;
13032;SDS011;6583;42.632;23.298;2023-02-12T09:05:38;22.57;;;15.77;;
13032;SDS011;6583;42.632;23.298;2023-02-12T09:08:05;21.37;;;14.83;;
13032;SDS011;6583;42.632;23.298;2023-02-12T09:10:32;22.07;;;14.70;;
13032;SDS011;6583;42.632;23.298;2023-02-12T09:12:59;19.60;;;13.60;;
13032;SDS011;6583;42.632;23.298;2023-02-12T09:15:25;20.37;;;13.40;;
13032;SDS011;6583;42.632;23.298;2023-02-12T09:17:52;23.27;;;14.33;;
13032;SDS011;6583;42.632;23.298;2023-02-12T09:20:19;22.30;;;13.80;;
13032;SDS011;6583;42.632;23.298;2023-02-12T09:22:47;22.43;;;14.00;;
13032;SDS011;6583;42.632;23.298;2023-02-12T09:25:13;21.30;;;14.10;;
13032;SDS011;6583;42.632;23.298;2023-02-12T09:27:40;21.30;;;14.17;;
13032;SDS011;6583;42.632;23.298;2023-02-12T09:30:07;21.97;;;14.57;;
13032;SDS011;6583;42.632;23.298;2023-02-12T09:32:34;22.53;;;13.70;;
13032;SDS011;6583;42.632;23.298;2023-02-12T09:35:01;22.03;;;15.00;;
13032;SDS011;6583;42.632;23.298;2023-02-12T09:37:28;23.10;;;15.67;;
13032;SDS011;6583;42.632;23.298;2023-02-12T09:39:56;24.03;;;15.50;;
13032;SDS011;6583;42.632;23.298;2023-02-12T09:42:25;24.83;;;16.03;;
13032;SDS011;6583;42.632;23.298;2023-02-12T09:45:03;22.47;;;15.17;;
13032;SDS011;6583;42.632;23.298;2023-02-12T09:47:38;25.80;;;17.23;;
13032;SDS011;6583;42.632;23.298;2023-02-12T09:50:11;25.17;;;16.13;;
13032;SDS011;6583;42.632;23.298;2023-02-12T09:52:49;23.10;;;15.33;;
13032;SDS011;6583;42.632;23.298;2023-02-12T09:55:19;23.83;;;14.33;;
13032;SDS011;6583;42.632;23.298;2023-02-12T09:57:47;21.83;;;13.87;;
13032;SDS011;6583;42.632;23.298;2023-02-12T10:00:14;21.87;;;12.87;;
13032;SDS011;6583;42.632;23.298;2023-02-12T10:02:43;23.00;;;14.93;;
13032;SDS011;6583;42.632;23.298;2023-02-12T10:05:13;28.43;;;16.73;;
13032;SDS011;6583;42.632;23.298;2023-02-12T10:11:21;23.83;;;14.70;;
13032;SDS011;6583;42.632;23.298;2023-02-12T10:14:01;31.13;;;17.80;;
13032;SDS011;6583;42.632;23.298;2023-02-12T10:16:41;25.10;;;16.43;;
13032;SDS011;6583;42.632;23.298;2023-02-12T10:19:22;26.93;;;16.87;;
13032;SDS011;6583;42.632;23.298;2023-02-12T10:22:04;27.33;;;17.07;;
13032;SDS011;6583;42.632;23.298;2023-02-12T10:24:43;23.20;;;16.03;;
13032;SDS011;6583;42.632;23.298;2023-02-12T10:27:20;27.47;;;17.50;;
13032;SDS011;6583;42.632;23.298;2023-02-12T10:29:51;25.60;;;17.37;;
13032;SDS011;6583;42.632;23.298;2023-02-12T10:32:22;24.83;;;16.37;;
13032;SDS011;6583;42.632;23.298;2023-02-12T10:34:52;28.03;;;17.70;;
13032;SDS011;6583;42.632;23.298;2023-02-12T10:37:25;27.50;;;17.53;;
13032;SDS011;6583;42.632;23.298;2023-02-12T10:39:59;26.20;;;17.07;;
13032;SDS011;6583;42.632;23.298;2023-02-12T10:42:35;29.23;;;18.20;;
13032;SDS011;6583;42.632;23.298;2023-02-12T10:45:04;29.17;;;17.23;;
13032;SDS011;6583;42.632;23.298;2023-02-12T10:47:40;23.77;;;14.13;;
13032;SDS011;6583;42.632;23.298;2023-02-12T10:50:13;27.93;;;18.03;;
13032;SDS011;6583;42.632;23.298;2023-02-12T10:52:46;27.40;;;16.30;;
13032;SDS011;6583;42.632;23.298;2023-02-12T10:55:27;28.03;;;17.83;;
13032;SDS011;6583;42.632;23.298;2023-02-12T10:57:58;32.67;;;19.47;;
13032;SDS011;6583;42.632;23.298;2023-02-12T11:00:29;32.53;;;19.70;;
13032;SDS011;6583;42.632;23.298;2023-02-12T11:03:00;29.50;;;18.87;;
13032;SDS011;6583;42.632;23.298;2023-02-12T11:05:30;29.30;;;17.27;;
13032;SDS011;6583;42.632;23.298;2023-02-12T11:07:58;25.77;;;17.37;;
13032;SDS011;6583;42.632;23.298;2023-02-12T11:10:26;25.93;;;17.10;;
13032;SDS011;6583;42.632;23.298;2023-02-12T11:12:55;27.87;;;19.07;;
13032;SDS011;6583;42.632;23.298;2023-02-12T11:15:26;28.40;;;17.63;;
13032;SDS011;6583;42.632;23.298;2023-02-12T11:17:57;26.80;;;18.57;;
13032;SDS011;6583;42.632;23.298;2023-02-12T11:20:26;29.80;;;19.17;;
13032;SDS011;6583;42.632;23.298;2023-02-12T11:22:56;28.87;;;20.30;;
13032;SDS011;6583;42.632;23.298;2023-02-12T11:25:24;32.13;;;19.67;;
13032;SDS011;6583;42.632;23.298;2023-02-12T11:28:05;30.57;;;19.80;;
13032;SDS011;6583;42.632;23.298;2023-02-12T11:30:47;29.23;;;18.90;;
13032;SDS011;6583;42.632;23.298;2023-02-12T11:33:21;30.53;;;19.93;;
13032;SDS011;6583;42.632;23.298;2023-02-12T11:35:53;30.50;;;19.33;;
13032;SDS011;6583;42.632;23.298;2023-02-12T11:38:23;26.80;;;19.03;;
13032;SDS011;6583;42.632;23.298;2023-02-12T11:40:57;29.13;;;19.30;;
13032;SDS011;6583;42.632;23.298;2023-02-12T11:43:28;31.30;;;20.27;;
13032;SDS011;6583;42.632;23.298;2023-02-12T11:45:57;33.20;;;20.43;;
13032;SDS011;6583;42.632;23.298;2023-02-12T11:48:26;37.60;;;22.03;;
13032;SDS011;6583;42.632;23.298;2023-02-12T11:50:58;31.53;;;21.23;;
13032;SDS011;6583;42.632;23.298;2023-02-12T11:53:28;28.33;;;19.87;;
13032;SDS011;6583;42.632;23.298;2023-02-12T11:55:58;28.40;;;19.23;;
13032;SDS011;6583;42.632;23.298;2023-02-12T11:58:28;28.10;;;19.07;;
13032;SDS011;6583;42.632;23.298;2023-02-12T12:00:58;27.13;;;18.73;;
13032;SDS011;6583;42.632;23.298;2023-02-12T12:03:32;31.33;;;20.83;;
13032;SDS011;6583;42.632;23.298;2023-02-12T12:06:05;29.53;;;20.03;;
13032;SDS011;6583;42.632;23.298;2023-02-12T12:08:39;29.77;;;20.10;;
13032;SDS011;6583;42.632;23.298;2023-02-12T12:11:14;26.43;;;18.80;;
13032;SDS011;6583;42.632;23.298;2023-02-12T12:13:48;30.47;;;20.27;;
13032;SDS011;6583;42.632;23.298;2023-02-12T12:16:19;28.03;;;20.17;;
13032;SDS011;6583;42.632;23.298;2023-02-12T12:19:10;30.57;;;21.63;;
13032;SDS011;6583;42.632;23.298;2023-02-12T12:22:15;29.77;;;19.43;;
13032;SDS011;6583;42.632;23.298;2023-02-12T12:24:50;27.27;;;18.10;;
13032;SDS011;6583;42.632;23.298;2023-02-12T12:27:23;26.13;;;18.43;;
13032;SDS011;6583;42.632;23.298;2023-02-12T12:30:17;26.33;;;18.40;;
13032;SDS011;6583;42.632;23.298;2023-02-12T12:32:48;27.23;;;18.77;;
13032;SDS011;6583;42.632;23.298;2023-02-12T12:35:20;30.97;;;20.40;;
13032;SDS011;6583;42.632;23.298;2023-02-12T12:37:58;30.03;;;19.83;;
13032;SDS011;6583;42.632;23.298;2023-02-12T12:40:41;27.50;;;20.03;;
13032;SDS011;6583;42.632;23.298;2023-02-12T12:43:24;31.23;;;20.57;;
13032;SDS011;6583;42.632;23.298;2023-02-12T12:46:06;28.60;;;20.17;;
13032;SDS011;6583;42.632;23.298;2023-02-12T12:51:55;28.47;;;21.63;;
13032;SDS011;6583;42.632;23.298;2023-02-12T12:54:32;31.30;;;21.13;;
13032;SDS011;6583;42.632;23.298;2023-02-12T12:57:12;35.03;;;22.83;;
13032;SDS011;6583;42.632;23.298;2023-02-12T13:00:00;30.77;;;21.20;;
13032;SDS011;6583;42.632;23.298;2023-02-12T13:02:44;33.37;;;21.07;;
13032;SDS011;6583;42.632;23.298;2023-02-12T13:08:46;35.07;;;21.63;;
13032;SDS011;6583;42.632;23.298;2023-02-12T13:11:33;33.57;;;22.90;;
13032;SDS011;6583;42.632;23.298;2023-02-12T13:14:06;39.27;;;23.10;;
13032;SDS011;6583;42.632;23.298;2023-02-12T13:16:45;32.43;;;21.43;;
13032;SDS011;6583;42.632;23.298;2023-02-12T13:19:30;35.53;;;22.90;;
13032;SDS011;6583;42.632;23.298;2023-02-12T13:22:05;39.43;;;23.97;;
13032;SDS011;6583;42.632;23.298;2023-02-12T13:24:39;37.70;;;22.93;;
13032;SDS011;6583;42.632;23.298;2023-02-12T13:27:15;32.37;;;22.43;;
13032;SDS011;6583;42.632;23.298;2023-02-12T13:29:47;31.90;;;22.63;;
13032;SDS011;6583;42.632;23.298;2023-02-12T13:32:21;41.17;;;23.70;;
13032;SDS011;6583;42.632;23.298;2023-02-12T13:34:52;38.17;;;25.30;;
13032;SDS011;6583;42.632;23.298;2023-02-12T13:37:22;38.73;;;24.77;;
13032;SDS011;6583;42.632;23.298;2023-02-12T13:39:59;35.93;;;23.63;;
13032;SDS011;6583;42.632;23.298;2023-02-12T13:42:35;33.90;;;22.87;;
13032;SDS011;6583;42.632;23.298;2023-02-12T13:45:14;33.73;;;23.77;;
13032;SDS011;6583;42.632;23.298;2023-02-12T13:47:52;36.07;;;23.13;;
13032;SDS011;6583;42.632;23.298;2023-02-12T13:50:35;31.57;;;22.90;;
13032;SDS011;6583;42.632;23.298;2023-02-12T13:53:11;35.93;;;24.60;;
13032;SDS011;6583;42.632;23.298;2023-02-12T13:55:50;37.93;;;23.83;;
13032;SDS011;6583;42.632;23.298;2023-02-12T13:58:37;35.07;;;22.97;;
13032;SDS011;6583;42.632;23.298;2023-02-12T14:01:05;38.20;;;25.37;;
13032;SDS011;6583;42.632;23.298;2023-02-12T14:03:33;36.53;;;24.07;;
13032;SDS011;6583;42.632;23.298;2023-02-12T14:06:10;34.37;;;24.40;;
13032;SDS011;6583;42.632;23.298;2023-02-12T14:08:40;34.50;;;24.80;;
13032;SDS011;6583;42.632;23.298;2023-02-12T14:11:09;36.93;;;25.20;;
13032;SDS011;6583;42.632;23.298;2023-02-12T14:13:44;35.10;;;24.77;;
13032;SDS011;6583;42.632;23.298;2023-02-12T14:22:05;35.37;;;24.57;;
13032;SDS011;6583;42.632;23.298;2023-02-12T14:24:45;39.20;;;25.70;;
13032;SDS011;6583;42.632;23.298;2023-02-12T14:30:20;36.53;;;24.80;;
13032;SDS011;6583;42.632;23.298;2023-02-12T14:32:56;34.33;;;24.00;;
13032;SDS011;6583;42.632;23.298;2023-02-12T14:35:38;34.73;;;24.23;;
13032;SDS011;6583;42.632;23.298;2023-02-12T14:41:21;37.50;;;25.67;;
13032;SDS011;6583;42.632;23.298;2023-02-12T14:50:12;38.50;;;26.23;;
13032;SDS011;6583;42.632;23.298;2023-02-12T14:52:42;36.57;;;25.00;;
13032;SDS011;6583;42.632;23.298;2023-02-12T14:55:22;36.77;;;26.03;;
13032;SDS011;6583;42.632;23.298;2023-02-12T14:57:55;35.60;;;24.87;;
13032;SDS011;6583;42.632;23.298;2023-02-12T15:00:26;35.73;;;24.87;;
13032;SDS011;6583;42.632;23.298;2023-02-12T15:02:58;38.73;;;24.30;;
13032;SDS011;6583;42.632;23.298;2023-02-12T15:05:28;36.27;;;24.07;;
13032;SDS011;6583;42.632;23.298;2023-02-12T15:07:58;31.53;;;22.27;;
13032;SDS011;6583;42.632;23.298;2023-02-12T15:10:28;37.73;;;24.80;;
13032;SDS011;6583;42.632;23.298;2023-02-12T15:13:04;45.63;;;25.80;;
13032;SDS011;6583;42.632;23.298;2023-02-12T15:15:42;41.60;;;25.50;;
13032;SDS011;6583;42.632;23.298;2023-02-12T15:18:15;46.70;;;27.20;;
13032;SDS011;6583;42.632;23.298;2023-02-12T15:20:47;47.13;;;27.87;;
13032;SDS011;6583;42.632;23.298;2023-02-12T15:23:29;38.67;;;27.13;;
13032;SDS011;6583;42.632;23.298;2023-02-12T15:25:58;40.10;;;26.90;;
13032;SDS011;6583;42.632;23.298;2023-02-12T15:28:28;39.83;;;25.53;;